Time;durP1;ratioP1;P1;durP2;ratioP2;P2;SDS_P1;SDS_P2;PMS_P1;PMS_P2;Temp;Humidity;BMP_temperature;BMP_pressure;BME280_temperature;BME280_humidity;BME280_pressure;Samples;Min_cycle;Max_cycle;Signal;HPM_P1;HPM_P2
2022/03/08 00:00:22;;;;;;;13.95;8.30;;;;;;;1.83;64.75;99766.88;5037072;28;20099;-78
2022/03/08 00:02:48;;;;;;;15.07;9.15;;;;;;;1.82;65.02;99768.69;5034824;28;20104;-77
2022/03/08 00:05:13;;;;;;;17.38;10.15;;;;;;;1.78;65.35;99774.47;5041672;28;20117;-78
2022/03/08 00:07:39;;;;;;;20.63;10.13;;;;;;;1.86;65.05;99783.16;5040537;28;20029;-79
2022/03/08 00:10:07;;;;;;;19.17;11.15;;;;;;;1.83;65.14;99778.25;5038300;28;20029;-78
2022/03/08 00:12:33;;;;;;;18.25;11.25;;;;;;;1.83;65.34;99774.78;5015149;28;20029;-78
2022/03/08 00:14:59;;;;;;;20.52;11.45;;;;;;;1.82;64.93;99766.06;5031241;28;20152;-78
2022/03/08 00:17:24;;;;;;;22.67;11.93;;;;;;;1.80;64.93;99775.94;5036022;28;20474;-78
2022/03/08 00:19:49;;;;;;;24.52;11.25;;;;;;;1.73;64.75;99756.53;5036041;28;20087;-78
2022/03/08 00:22:14;;;;;;;22.73;10.93;;;;;;;1.77;64.74;99757.03;5004589;28;20032;-78
2022/03/08 00:24:40;;;;;;;22.50;11.95;;;;;;;1.72;65.12;99743.56;5033071;28;20037;-78
2022/03/08 00:27:05;;;;;;;21.77;11.18;;;;;;;1.72;64.81;99743.56;5016633;28;20394;-77
2022/03/08 00:29:30;;;;;;;20.80;10.93;;;;;;;1.67;65.18;99740.63;5035598;28;20208;-77
2022/03/08 00:31:56;;;;;;;19.25;10.50;;;;;;;1.76;64.79;99739.59;5035641;28;20075;-77
2022/03/08 00:34:21;;;;;;;21.85;11.73;;;;;;;1.72;65.17;99743.56;5021684;28;20086;-77
2022/03/08 00:36:46;;;;;;;19.33;10.13;;;;;;;1.59;65.09;99723.06;5036370;28;20028;-77
2022/03/08 00:39:12;;;;;;;12.05;8.18;;;;;;;1.68;64.66;99732.56;5031470;28;20110;-77
2022/03/08 00:41:37;;;;;;;16.60;9.48;;;;;;;1.68;65.21;99737.84;5034648;28;20098;-77
2022/03/08 00:44:05;;;;;;;14.18;9.40;;;;;;;1.60;64.96;99723.88;5033135;28;20485;-77
2022/03/08 00:46:30;;;;;;;15.57;8.88;;;;;;;1.68;65.26;99734.38;5031840;28;20025;-77
2022/03/08 00:48:55;;;;;;;14.80;8.70;;;;;;;1.58;65.17;99715.31;5032834;28;20439;-76
2022/03/08 00:51:21;;;;;;;10.88;8.48;;;;;;;1.62;64.88;99732.44;5013215;28;20030;-77
2022/03/08 00:53:48;;;;;;;15.75;8.48;;;;;;;1.48;65.54;99716.38;5030884;28;20041;-76
2022/03/08 00:56:14;;;;;;;13.25;9.13;;;;;;;1.57;65.18;99726.84;5033685;28;20048;-76
2022/03/08 00:58:41;;;;;;;16.45;8.80;;;;;;;1.56;64.81;99730.47;5032841;28;20037;-77
2022/03/08 01:01:06;;;;;;;13.68;7.60;;;;;;;1.44;65.37;99719.50;5033807;28;20308;-76
2022/03/08 01:03:31;;;;;;;11.82;7.93;;;;;;;1.43;65.58;99726.56;5002991;28;20025;-77
2022/03/08 01:05:57;;;;;;;12.52;8.27;;;;;;;1.42;65.25;99724.91;5031676;28;20030;-76
2022/03/08 01:08:22;;;;;;;11.30;7.78;;;;;;;1.47;65.25;99735.75;5032114;28;20048;-77
2022/03/08 01:10:47;;;;;;;12.65;7.72;;;;;;;1.36;65.50;99722.94;5031450;28;20104;-77
2022/03/08 01:13:13;;;;;;;11.68;7.97;;;;;;;1.38;65.78;99723.59;5031522;28;20065;-76
2022/03/08 01:15:38;;;;;;;9.30;7.00;;;;;;;1.38;65.21;99723.59;5011942;28;20030;-77
2022/03/08 01:18:04;;;;;;;9.75;6.70;;;;;;;1.37;65.24;99716.72;5030505;28;20491;-76
2022/03/08 01:20:29;;;;;;;9.18;7.20;;;;;;;1.41;65.02;99727.72;5036995;28;20511;-76
2022/03/08 01:22:55;;;;;;;10.57;7.60;;;;;;;1.40;65.73;99718.16;5032545;28;20512;-77
2022/03/08 01:25:21;;;;;;;11.65;7.55;;;;;;;1.41;64.93;99719.81;5031540;28;20409;-76
2022/03/08 01:27:47;;;;;;;9.93;7.57;;;;;;;1.36;65.14;99704.53;4996594;28;20030;-77
2022/03/08 01:30:14;;;;;;;13.30;7.38;;;;;;;1.40;64.50;99703.22;5014577;28;20393;-77
2022/03/08 01:32:39;;;;;;;8.23;6.68;;;;;;;1.40;64.70;99707.66;5031785;28;20571;-77
2022/03/08 01:35:06;;;;;;;15.45;7.22;;;;;;;1.38;64.51;99707.81;5036568;28;20045;-77
2022/03/08 01:37:32;;;;;;;7.85;6.70;;;;;;;1.24;64.63;99690.13;5015360;28;20061;-76
2022/03/08 01:39:57;;;;;;;8.57;7.45;;;;;;;1.28;65.23;99695.88;5035088;28;20063;-77
2022/03/08 01:42:24;;;;;;;9.70;7.47;;;;;;;1.30;64.96;99701.78;5016144;28;20041;-76
2022/03/08 01:44:50;;;;;;;10.48;7.90;;;;;;;1.31;65.49;99701.59;5030336;28;20529;-77
2022/03/08 01:47:19;;;;;;;8.20;6.70;;;;;;;1.30;64.58;99710.50;5033072;28;20045;-77
2022/03/08 01:49:44;;;;;;;9.32;6.68;;;;;;;1.28;65.27;99706.38;5028800;28;20036;-77
2022/03/08 01:52:11;;;;;;;9.73;7.13;;;;;;;1.27;65.00;99705.56;5029992;28;20033;-76
2022/03/08 01:54:36;;;;;;;9.10;6.88;;;;;;;1.25;64.95;99704.06;5032676;28;20033;-76
2022/03/08 01:57:04;;;;;;;11.43;7.70;;;;;;;1.18;65.36;99690.78;5031521;28;20052;-78
2022/03/08 01:59:29;;;;;;;9.90;7.05;;;;;;;1.15;65.36;99688.50;5031710;28;20029;-77
2022/03/08 02:01:55;;;;;;;10.85;6.85;;;;;;;1.14;65.26;99684.22;5031986;28;20060;-77
2022/03/08 02:04:20;;;;;;;8.70;6.63;;;;;;;1.20;65.59;99694.06;5031791;28;20025;-76
2022/03/08 02:06:46;;;;;;;11.07;7.75;;;;;;;1.20;65.19;99693.25;5029113;28;20084;-76
2022/03/08 02:09:12;;;;;;;10.85;7.25;;;;;;;1.18;64.82;99688.16;5012849;28;20030;-76
2022/03/08 02:11:38;;;;;;;9.68;6.93;;;;;;;1.08;65.11;99679.63;5032068;28;20041;-76
2022/03/08 02:14:03;;;;;;;8.63;7.20;;;;;;;1.13;65.71;99693.13;5031695;28;20497;-77
2022/03/08 02:16:29;;;;;;;10.70;7.18;;;;;;;1.04;65.36;99688.03;5029688;28;20037;-77
2022/03/08 02:18:54;;;;;;;7.18;6.40;;;;;;;1.07;65.79;99699.00;5033776;28;20041;-77
2022/03/08 02:21:20;;;;;;;10.00;7.38;;;;;;;1.00;65.85;99684.91;5015887;28;20039;-77
2022/03/08 02:23:45;;;;;;;9.50;7.00;;;;;;;1.00;65.55;99673.59;5034212;28;20040;-77
2022/03/08 02:26:11;;;;;;;9.98;7.00;;;;;;;1.05;65.07;99687.06;5035954;28;20160;-76
2022/03/08 02:28:38;;;;;;;10.38;7.32;;;;;;;1.04;65.43;99683.59;5036474;28;20033;-76
2022/03/08 02:31:03;;;;;;;10.35;6.57;;;;;;;1.02;64.88;99676.88;5032329;28;20028;-77
2022/03/08 02:33:28;;;;;;;8.95;7.32;;;;;;;0.97;65.24;99669.47;5031917;28;20029;-76
2022/03/08 02:35:54;;;;;;;8.68;6.57;;;;;;;1.05;64.65;99677.34;5012703;28;20029;-76
2022/03/08 02:38:20;;;;;;;9.55;7.05;;;;;;;0.95;64.86;99646.97;5033020;28;20040;-76
2022/03/08 02:40:45;;;;;;;8.57;6.63;;;;;;;1.02;64.58;99658.47;5035116;28;20484;-76
2022/03/08 02:43:12;;;;;;;9.20;6.93;;;;;;;1.05;64.95;99672.06;5032576;28;20029;-77
2022/03/08 02:45:37;;;;;;;11.57;6.88;;;;;;;1.03;64.75;99666.16;5037569;28;20033;-76
2022/03/08 02:48:03;;;;;;;10.55;7.78;;;;;;;1.03;64.79;99673.22;5032700;28;20503;-77
2022/03/08 02:50:29;;;;;;;9.35;7.25;;;;;;;0.99;65.18;99664.88;5033260;28;20441;-77
2022/03/08 02:52:56;;;;;;;10.13;7.43;;;;;;;1.01;65.01;99664.69;5032329;28;20037;-77
2022/03/08 02:55:25;;;;;;;9.85;7.60;;;;;;;0.99;64.65;99666.66;5028146;28;20029;-76
2022/03/08 02:57:52;;;;;;;10.60;7.80;;;;;;;0.97;65.47;99666.84;5036343;28;20032;-78
2022/03/08 03:00:19;;;;;;;11.13;7.65;;;;;;;0.91;65.54;99657.00;5046399;28;20036;-76
2022/03/08 03:02:45;;;;;;;11.23;7.25;;;;;;;0.87;65.29;99650.47;5032971;28;20159;-76
2022/03/08 03:05:11;;;;;;;9.27;7.43;;;;;;;0.84;65.55;99665.72;4998889;28;20121;-77
2022/03/08 03:07:37;;;;;;;13.32;8.05;;;;;;;0.78;65.55;99667.22;5033605;28;20087;-76
2022/03/08 03:10:07;;;;;;;11.40;7.65;;;;;;;0.75;65.30;99649.13;5033138;28;20029;-76
2022/03/08 03:12:33;;;;;;;10.80;7.55;;;;;;;0.79;65.81;99670.66;5047721;28;20033;-75
2022/03/08 03:14:58;;;;;;;10.07;7.53;;;;;;;0.78;65.95;99664.59;5032081;28;20052;-75
2022/03/08 03:17:24;;;;;;;10.15;7.93;;;;;;;0.66;66.17;99639.63;5015764;28;20041;-76
2022/03/08 03:19:49;;;;;;;11.93;8.55;;;;;;;0.60;66.04;99638.50;5012526;28;20083;-75
2022/03/08 03:22:15;;;;;;;10.32;7.90;;;;;;;0.62;66.04;99638.31;5031697;28;20091;-75
2022/03/08 03:24:40;;;;;;;9.13;7.20;;;;;;;0.70;66.34;99664.56;5027488;28;20038;-77
2022/03/08 03:27:06;;;;;;;11.25;8.60;;;;;;;0.55;66.20;99648.66;5033275;28;20513;-75
2022/03/08 03:29:31;;;;;;;10.68;8.32;;;;;;;0.53;66.47;99645.38;5033874;28;20480;-76
2022/03/08 03:31:56;;;;;;;10.20;7.43;;;;;;;0.52;66.33;99653.44;5032413;28;20030;-76
2022/03/08 03:34:21;;;;;;;12.27;7.40;;;;;;;0.60;66.38;99667.38;5034118;28;20120;-78
2022/03/08 03:36:47;;;;;;;9.70;7.30;;;;;;;0.56;66.14;99662.63;5032274;28;20123;-78
2022/03/08 03:39:12;;;;;;;10.13;8.35;;;;;;;0.63;66.23;99663.63;5032380;28;20358;-78
2022/03/08 03:41:37;;;;;;;10.07;7.57;;;;;;;0.66;65.68;99663.25;5022322;28;20492;-78
2022/03/08 03:44:03;;;;;;;10.65;8.57;;;;;;;0.64;66.17;99668.69;4992841;28;20035;-78
2022/03/08 03:46:29;;;;;;;10.25;7.63;;;;;;;0.63;65.27;99676.75;5030473;28;20179;-78
2022/03/08 03:48:54;;;;;;;10.55;8.13;;;;;;;0.63;65.51;99682.00;5030722;28;20108;-77
2022/03/08 03:51:19;;;;;;;14.02;8.27;;;;;;;0.60;65.83;99669.19;5033710;28;20167;-78
2022/03/08 03:53:45;;;;;;;13.05;8.23;;;;;;;0.55;65.61;99666.22;5032502;28;20025;-78
2022/03/08 03:56:11;;;;;;;9.35;7.95;;;;;;;0.53;66.25;99663.78;5034353;28;20037;-78
2022/03/08 03:58:37;;;;;;;11.10;8.38;;;;;;;0.57;65.62;99678.22;5032457;28;20033;-77
2022/03/08 04:01:03;;;;;;;11.75;8.15;;;;;;;0.52;65.24;99674.44;5030177;28;20029;-78
2022/03/08 04:03:28;;;;;;;10.82;7.53;;;;;;;0.58;65.45;99684.28;5031456;28;20087;-77
2022/03/08 04:05:53;;;;;;;9.80;7.38;;;;;;;0.48;65.23;99665.25;5032756;28;20033;-78
2022/03/08 04:08:20;;;;;;;10.35;8.43;;;;;;;0.45;65.80;99665.56;5031057;28;20029;-79
2022/03/08 04:10:48;;;;;;;12.25;8.30;;;;;;;0.47;65.81;99679.38;5032709;28;20033;-78
2022/03/08 04:13:13;;;;;;;10.88;7.75;;;;;;;0.37;65.61;99669.00;5032947;28;20079;-77
2022/03/08 04:15:39;;;;;;;11.85;8.35;;;;;;;0.38;65.78;99665.41;5024878;28;20496;-77
2022/03/08 04:18:04;;;;;;;12.65;8.95;;;;;;;0.44;66.25;99671.78;5032565;28;20094;-78
2022/03/08 04:20:29;;;;;;;11.02;8.40;;;;;;;0.48;65.39;99681.03;5045837;28;20029;-79
2022/03/08 04:22:55;;;;;;;11.50;8.77;;;;;;;0.50;65.32;99684.28;5019999;28;20519;-78
2022/03/08 04:25:21;;;;;;;10.38;8.45;;;;;;;0.43;66.03;99678.88;5031786;28;20108;-78
2022/03/08 04:27:46;;;;;;;11.55;9.27;;;;;;;0.36;65.65;99672.63;5030302;28;20509;-78
2022/03/08 04:30:11;;;;;;;20.42;9.68;;;;;;;0.39;65.16;99672.31;5034661;28;20044;-75
2022/03/08 04:32:37;;;;;;;12.18;9.10;;;;;;;0.29;66.02;99666.38;5030720;28;20401;-78
2022/03/08 04:35:03;;;;;;;12.65;9.63;;;;;;;0.38;65.83;99680.34;5014894;28;20120;-78
2022/03/08 04:37:28;;;;;;;12.60;9.20;;;;;;;0.32;66.07;99665.25;5030517;28;20085;-78
2022/03/08 04:39:53;;;;;;;10.77;9.27;;;;;;;0.30;65.67;99672.47;5031478;28;20037;-78
2022/03/08 04:42:19;;;;;;;14.13;9.43;;;;;;;0.35;66.29;99678.06;5032842;28;20408;-78
2022/03/08 04:44:44;;;;;;;11.13;8.70;;;;;;;0.32;66.31;99683.63;5029984;28;20034;-78
2022/03/08 04:47:09;;;;;;;12.63;9.68;;;;;;;0.32;66.20;99683.63;5017339;28;20018;-76
2022/03/08 04:49:35;;;;;;;14.93;9.07;;;;;;;0.29;65.79;99681.31;5033517;28;20025;-79
2022/03/08 04:52:00;;;;;;;14.05;9.13;;;;;;;0.30;65.61;99688.22;5031507;28;20037;-78
2022/03/08 04:54:25;;;;;;;13.73;8.85;;;;;;;0.27;65.58;99680.66;5019234;28;20061;-79
2022/03/08 04:56:51;;;;;;;11.95;9.15;;;;;;;0.22;65.74;99664.59;5035495;28;20035;-78
2022/03/08 04:59:17;;;;;;;14.55;9.55;;;;;;;0.24;65.43;99675.75;5003708;28;20041;-79
2022/03/08 05:01:42;;;;;;;12.95;9.57;;;;;;;0.31;65.74;99679.34;5014982;28;20057;-77
2022/03/08 05:04:08;;;;;;;17.10;9.77;;;;;;;0.22;65.05;99669.84;5031498;28;20154;-78
2022/03/08 05:06:33;;;;;;;13.48;10.13;;;;;;;0.28;65.42;99683.13;5029913;28;20036;-78
2022/03/08 05:08:58;;;;;;;17.30;10.52;;;;;;;0.28;66.13;99690.19;5033670;28;20140;-78
2022/03/08 05:11:24;;;;;;;13.60;9.82;;;;;;;0.23;65.96;99689.84;5036136;28;20037;-78
2022/03/08 05:13:49;;;;;;;16.67;10.70;;;;;;;0.12;66.26;99680.47;5032292;28;20064;-78
2022/03/08 05:16:15;;;;;;;14.13;9.55;;;;;;;0.21;66.56;99691.81;5031831;28;20388;-78
2022/03/08 05:18:40;;;;;;;15.93;10.35;;;;;;;0.21;65.45;99700.50;5038877;28;20045;-78
2022/03/08 05:21:05;;;;;;;13.38;10.35;;;;;;;0.18;66.20;99686.88;5028165;28;20556;-77
2022/03/08 05:23:31;;;;;;;13.50;9.88;;;;;;;0.07;65.77;99674.09;5029668;28;20146;-78
2022/03/08 05:25:57;;;;;;;15.23;9.90;;;;;;;0.21;66.22;99694.44;5025783;28;20027;-77
2022/03/08 05:28:22;;;;;;;13.95;10.05;;;;;;;0.11;66.13;99673.56;5022710;28;20489;-79
2022/03/08 05:30:47;;;;;;;14.70;10.98;;;;;;;0.11;65.78;99670.16;5026229;28;20079;-78
2022/03/08 05:33:13;;;;;;;15.82;11.02;;;;;;;0.10;65.94;99671.94;5031708;28;20140;-78
2022/03/08 05:35:39;;;;;;;13.02;10.65;;;;;;;0.19;65.21;99697.22;5036302;28;20029;-78
2022/03/08 05:38:05;;;;;;;15.93;10.68;;;;;;;0.18;65.60;99692.13;5029810;28;20087;-78
2022/03/08 05:40:30;;;;;;;16.85;11.32;;;;;;;0.09;66.15;99675.53;5018436;28;20500;-78
2022/03/08 05:42:56;;;;;;;17.30;11.43;;;;;;;0.17;65.16;99680.81;5037209;28;20557;-78
2022/03/08 05:45:21;;;;;;;14.45;10.60;;;;;;;0.11;65.68;99670.94;5021328;28;20092;-77
2022/03/08 05:47:48;;;;;;;15.55;11.10;;;;;;;0.17;65.22;99677.38;5030256;28;20080;-78
2022/03/08 05:50:13;;;;;;;14.75;11.63;;;;;;;0.13;65.46;99673.44;5036689;28;20032;-78
2022/03/08 05:52:39;;;;;;;16.02;11.52;;;;;;;0.10;65.85;99665.88;4996547;28;20026;-78
2022/03/08 05:55:06;;;;;;;13.80;9.95;;;;;;;0.16;66.19;99680.97;5029026;28;20029;-76
2022/03/08 05:57:31;;;;;;;18.30;11.98;;;;;;;0.08;65.78;99670.47;5038179;28;20036;-78
2022/03/08 05:59:56;;;;;;;16.55;11.10;;;;;;;-0.01;66.04;99659.97;5035470;28;20115;-78
2022/03/08 06:02:22;;;;;;;17.25;11.50;;;;;;;0.06;66.24;99681.13;5016168;28;20060;-78
2022/03/08 06:04:47;;;;;;;16.42;11.35;;;;;;;0.04;65.70;99680.47;5032561;28;20073;-78
2022/03/08 06:07:13;;;;;;;15.73;11.20;;;;;;;0.06;66.66;99686.38;5031737;28;20435;-79
2022/03/08 06:09:38;;;;;;;12.85;10.30;;;;;;;0.07;66.54;99693.25;5013604;28;20041;-78
2022/03/08 06:12:04;;;;;;;12.95;9.98;;;;;;;0.03;66.67;99697.19;5014217;28;20116;-78
2022/03/08 06:14:30;;;;;;;15.88;11.25;;;;;;;-0.05;66.86;99690.13;5028972;28;20036;-77
2022/03/08 06:16:56;;;;;;;15.82;11.50;;;;;;;-0.02;66.32;99694.22;5032444;28;20037;-78
2022/03/08 06:19:21;;;;;;;17.75;11.27;;;;;;;-0.03;66.76;99692.59;5032038;28;20026;-78
2022/03/08 06:21:47;;;;;;;16.13;11.55;;;;;;;-0.01;66.73;99699.31;5033595;28;20083;-78
2022/03/08 06:24:13;;;;;;;19.10;11.20;;;;;;;0.00;66.15;99708.03;5031137;28;20040;-79
2022/03/08 06:26:38;;;;;;;13.77;10.40;;;;;;;-0.09;66.47;99701.09;5030838;28;20420;-78
2022/03/08 06:29:04;;;;;;;17.27;11.43;;;;;;;0.00;66.52;99714.06;5035666;28;20048;-77
2022/03/08 06:31:30;;;;;;;13.90;11.00;;;;;;;-0.09;66.17;99694.03;5030540;28;20075;-79
2022/03/08 06:33:55;;;;;;;26.80;13.05;;;;;;;-0.17;66.21;99683.53;5011740;28;20448;-78
2022/03/08 06:36:20;;;;;;;26.70;13.45;;;;;;;-0.12;66.32;99701.41;5010326;28;20145;-78
2022/03/08 06:38:46;;;;;;;23.05;13.48;;;;;;;-0.49;66.49;99664.22;5039764;28;20129;-79
2022/03/08 06:41:11;;;;;;;22.30;14.68;;;;;;;-0.27;67.35;99716.09;5030231;28;20389;-79
2022/03/08 06:43:37;;;;;;;22.38;14.75;;;;;;;-0.36;67.69;99707.41;5044944;28;20025;-79
2022/03/08 06:46:02;;;;;;;19.50;13.65;;;;;;;-0.42;67.86;99687.06;5029483;28;20521;-78
2022/03/08 06:48:27;;;;;;;21.50;14.43;;;;;;;-0.38;67.60;99695.41;5029919;28;20026;-78
2022/03/08 06:50:53;;;;;;;18.15;12.80;;;;;;;-0.33;67.83;99693.94;5012821;28;20038;-78
2022/03/08 06:53:19;;;;;;;21.05;13.57;;;;;;;-0.43;68.05;99676.69;5025256;28;20041;-78
2022/03/08 06:55:44;;;;;;;21.95;14.25;;;;;;;-0.25;67.78;99704.47;5030082;28;20025;-78
2022/03/08 06:58:09;;;;;;;20.23;14.45;;;;;;;-0.35;67.55;99688.03;5030939;28;20442;-78
2022/03/08 07:00:35;;;;;;;23.73;14.10;;;;;;;-0.27;67.76;99695.97;5031379;28;20044;-78
2022/03/08 07:03:00;;;;;;;18.88;13.73;;;;;;;-0.26;68.47;99696.75;5029283;28;20045;-78
2022/03/08 07:05:26;;;;;;;21.35;14.60;;;;;;;-0.40;67.82;99673.78;5034400;28;20029;-78
2022/03/08 07:07:51;;;;;;;25.80;16.80;;;;;;;-0.26;68.64;99704.63;5027727;28;20047;-78
2022/03/08 07:10:17;;;;;;;25.20;15.93;;;;;;;-0.16;67.57;99715.81;5034555;28;20025;-77
2022/03/08 07:12:42;;;;;;;23.85;16.10;;;;;;;-0.13;68.92;99699.75;5033856;28;20468;-78
2022/03/08 07:15:08;;;;;;;27.65;16.05;;;;;;;-0.20;68.07;99686.44;5035311;28;20037;-78
2022/03/08 07:17:33;;;;;;;20.95;15.38;;;;;;;-0.07;68.37;99699.13;5040214;28;20443;-78
2022/03/08 07:19:58;;;;;;;23.73;16.65;;;;;;;-0.10;68.87;99687.16;5034345;28;20072;-78
2022/03/08 07:22:24;;;;;;;23.40;16.05;;;;;;;-0.04;68.34;99689.13;5016916;28;20120;-79
2022/03/08 07:24:49;;;;;;;21.83;16.38;;;;;;;-0.02;68.66;99689.78;5031779;28;20127;-77
2022/03/08 07:27:14;;;;;;;21.88;16.27;;;;;;;0.00;68.82;99687.03;5033045;28;20037;-77
2022/03/08 07:29:40;;;;;;;23.50;16.48;;;;;;;-0.03;68.83;99684.72;5019993;28;20120;-78
2022/03/08 07:32:05;;;;;;;22.83;16.02;;;;;;;0.01;69.14;99696.53;5007533;28;20033;-79
2022/03/08 07:34:31;;;;;;;25.10;17.27;;;;;;;0.03;68.68;99693.72;5033490;28;20057;-78
2022/03/08 07:36:56;;;;;;;23.27;16.27;;;;;;;0.03;69.33;99698.97;5032813;28;20028;-79
2022/03/08 07:39:22;;;;;;;22.80;15.10;;;;;;;-0.04;69.26;99680.44;5033143;28;20044;-79
2022/03/08 07:41:47;;;;;;;23.95;15.35;;;;;;;0.00;69.52;99684.41;5039421;28;20030;-79
2022/03/08 07:44:12;;;;;;;25.55;16.77;;;;;;;0.11;68.94;99699.00;5041689;28;20068;-78
2022/03/08 07:46:39;;;;;;;21.77;14.90;;;;;;;0.12;69.18;99692.78;5015070;28;20033;-78
2022/03/08 07:49:05;;;;;;;23.23;15.30;;;;;;;0.12;69.43;99688.34;5013874;28;20030;-78
2022/03/08 07:51:30;;;;;;;23.25;16.33;;;;;;;0.13;69.77;99684.75;5032133;28;20397;-77
2022/03/08 07:53:55;;;;;;;22.00;15.25;;;;;;;0.19;69.65;99686.72;4998494;28;20127;-77
2022/03/08 07:56:21;;;;;;;20.23;14.45;;;;;;;0.21;69.99;99689.19;5033985;28;20034;-78
2022/03/08 07:58:46;;;;;;;23.27;15.90;;;;;;;0.21;69.43;99682.13;5020481;28;20038;-78
2022/03/08 08:01:12;;;;;;;23.98;16.95;;;;;;;0.20;69.88;99677.84;5033258;28;20037;-78
2022/03/08 08:03:38;;;;;;;21.73;15.40;;;;;;;0.27;70.01;99696.41;5032161;28;20025;-78
2022/03/08 08:06:03;;;;;;;19.50;14.88;;;;;;;0.36;68.98;99687.56;5044717;28;20029;-78
2022/03/08 08:08:29;;;;;;;25.17;16.55;;;;;;;0.31;69.60;99685.41;5032990;28;20022;-78
2022/03/08 08:10:54;;;;;;;23.02;15.75;;;;;;;0.45;69.84;99697.91;5033052;28;20044;-78
2022/03/08 08:13:20;;;;;;;20.65;15.50;;;;;;;0.43;69.35;99688.56;5031309;28;20063;-78
2022/03/08 08:15:45;;;;;;;26.42;15.95;;;;;;;0.44;69.23;99693.63;4999609;28;20045;-78
2022/03/08 08:18:10;;;;;;;25.58;15.98;;;;;;;0.46;69.68;99689.03;5004362;28;20331;-78
2022/03/08 08:20:36;;;;;;;22.75;15.85;;;;;;;0.61;69.49;99704.97;5030477;28;20037;-78
2022/03/08 08:23:01;;;;;;;25.30;15.65;;;;;;;0.55;69.00;99698.56;5015801;28;20071;-79
2022/03/08 08:25:26;;;;;;;19.92;15.23;;;;;;;0.59;69.34;99701.69;5026394;28;20473;-78
2022/03/08 08:27:52;;;;;;;23.05;15.13;;;;;;;0.68;69.19;99704.16;5031722;28;20037;-78
2022/03/08 08:30:18;;;;;;;21.98;14.57;;;;;;;0.75;68.81;99712.19;5031801;28;20485;-77
2022/03/08 08:32:44;;;;;;;21.48;15.30;;;;;;;0.82;68.52;99717.59;5026001;28;20029;-78
2022/03/08 08:35:09;;;;;;;23.17;14.18;;;;;;;0.75;69.09;99702.50;5032670;28;20037;-77
2022/03/08 08:37:35;;;;;;;24.70;14.27;;;;;;;0.82;68.74;99707.09;5031031;28;20021;-78
2022/03/08 08:40:01;;;;;;;23.08;14.55;;;;;;;0.85;69.18;99704.97;5032520;28;20175;-78
2022/03/08 08:42:26;;;;;;;20.40;13.57;;;;;;;0.91;69.38;99711.38;5029267;28;20044;-78
2022/03/08 08:44:52;;;;;;;18.65;12.85;;;;;;;0.99;69.19;99704.28;5036380;28;20385;-78
2022/03/08 08:47:17;;;;;;;21.88;13.13;;;;;;;0.98;69.00;99699.22;5027220;28;20106;-78
2022/03/08 08:49:42;;;;;;;19.38;14.10;;;;;;;1.05;68.62;99703.63;5030001;28;20420;-78
2022/03/08 08:52:08;;;;;;;20.60;13.40;;;;;;;0.79;69.37;99655.69;5024312;28;20517;-78
2022/03/08 08:54:33;;;;;;;18.02;12.77;;;;;;;1.12;69.06;99698.50;5041862;28;20040;-78
2022/03/08 08:56:59;;;;;;;21.90;13.88;;;;;;;1.10;69.33;99693.44;4996614;28;20034;-77
2022/03/08 08:59:24;;;;;;;21.38;13.00;;;;;;;1.08;68.71;99679.63;5012192;28;20124;-77
2022/03/08 09:01:49;;;;;;;21.17;11.77;;;;;;;1.25;68.91;99696.19;5009366;28;20034;-78
2022/03/08 09:04:15;;;;;;;19.45;12.98;;;;;;;1.24;69.44;99692.75;5028844;28;20492;-78
2022/03/08 09:06:41;;;;;;;17.45;12.73;;;;;;;1.27;68.98;99684.53;5010762;28;20062;-78
2022/03/08 09:09:07;;;;;;;17.98;12.75;;;;;;;1.30;68.74;99684.19;5012634;28;20156;-78
2022/03/08 09:11:33;;;;;;;20.75;12.57;;;;;;;1.36;69.02;99688.75;5024603;28;20386;-77
2022/03/08 09:13:59;;;;;;;18.38;11.75;;;;;;;1.36;69.28;99672.16;4996961;28;20120;-78
2022/03/08 09:16:25;;;;;;;19.60;13.05;;;;;;;1.41;68.99;99667.22;5030805;28;20107;-78
2022/03/08 09:18:50;;;;;;;19.38;12.55;;;;;;;1.38;68.83;99660.50;5014487;28;20060;-77
2022/03/08 09:21:16;;;;;;;17.52;12.10;;;;;;;1.48;69.28;99660.31;5030796;28;20044;-78
2022/03/08 09:23:41;;;;;;;19.05;12.25;;;;;;;1.58;69.31;99665.34;5012684;28;20087;-78
2022/03/08 09:26:07;;;;;;;17.42;12.00;;;;;;;1.52;69.03;99651.06;5034229;28;20027;-78
2022/03/08 09:28:33;;;;;;;16.80;12.23;;;;;;;1.56;68.80;99647.09;5034770;28;20018;-78
2022/03/08 09:30:59;;;;;;;14.98;11.52;;;;;;;1.63;68.92;99653.31;5027227;28;20029;-78
2022/03/08 09:33:25;;;;;;;17.10;11.75;;;;;;;1.71;69.30;99655.91;5012133;28;20429;-78
2022/03/08 09:35:50;;;;;;;18.05;12.63;;;;;;;1.67;68.99;99646.72;5029901;28;20028;-78
2022/03/08 09:38:17;;;;;;;23.85;13.68;;;;;;;1.80;68.63;99656.69;5026740;28;20037;-77
2022/03/08 09:40:42;;;;;;;17.67;12.32;;;;;;;1.76;68.98;99642.25;5032966;28;20063;-77
2022/03/08 09:43:07;;;;;;;21.13;13.85;;;;;;;1.87;68.80;99644.47;5036081;28;20029;-76
2022/03/08 09:45:34;;;;;;;20.35;13.15;;;;;;;1.83;69.03;99635.31;5030298;28;20412;-77
2022/03/08 09:48:03;;;;;;;21.85;13.57;;;;;;;2.00;68.62;99660.53;5030244;28;20527;-78
2022/03/08 09:50:29;;;;;;;19.02;12.27;;;;;;;1.98;69.04;99652.00;5028264;28;20031;-78
2022/03/08 09:52:56;;;;;;;23.10;13.90;;;;;;;2.05;68.96;99642.41;5028947;28;20025;-78
2022/03/08 09:55:23;;;;;;;21.30;13.40;;;;;;;2.02;69.36;99624.31;5030360;28;20039;-78
2022/03/08 09:57:49;;;;;;;23.05;13.80;;;;;;;2.20;68.80;99646.75;5024824;28;20075;-78
2022/03/08 10:00:14;;;;;;;18.70;12.63;;;;;;;2.17;69.09;99630.47;5038578;28;20037;-77
2022/03/08 10:03:01;;;;;;;19.20;13.25;;;;;;;2.29;68.73;99647.50;5043008;28;20072;-78
2022/03/08 10:05:39;;;;;;;23.02;13.27;;;;;;;2.38;69.26;99648.25;5030194;28;20065;-78
2022/03/08 10:08:18;;;;;;;22.27;14.80;;;;;;;2.45;69.36;99643.91;5028239;28;20044;-78
2022/03/08 10:10:52;;;;;;;20.35;13.25;;;;;;;2.52;69.82;99639.56;5031280;28;20025;-77
2022/03/08 10:13:18;;;;;;;18.73;12.60;;;;;;;2.55;69.84;99634.78;5030834;28;20037;-78
2022/03/08 10:15:44;;;;;;;19.52;12.60;;;;;;;2.64;69.94;99643.44;5030962;28;20068;-78
2022/03/08 10:18:10;;;;;;;17.30;12.10;;;;;;;2.76;69.62;99644.63;5031576;28;20431;-78
2022/03/08 10:20:35;;;;;;;18.52;11.43;;;;;;;2.84;70.10;99642.72;5023674;28;20481;-78
2022/03/08 10:23:10;;;;;;;20.95;11.48;;;;;;;2.93;70.00;99643.47;5031438;28;20079;-78
2022/03/08 10:25:35;;;;;;;14.52;9.43;;;;;;;3.00;69.54;99632.03;5029595;28;20389;-79
2022/03/08 10:28:04;;;;;;;13.65;9.38;;;;;;;3.13;69.86;99638.47;5031415;28;20025;-79
2022/03/08 10:30:46;;;;;;;11.20;8.80;;;;;;;3.39;69.02;99634.41;5031540;28;20041;-78
2022/03/08 10:33:14;;;;;;;12.20;9.18;;;;;;;3.55;68.21;99628.94;5023752;28;20033;-78
2022/03/08 10:35:42;;;;;;;11.48;8.70;;;;;;;3.55;68.10;99610.47;5032154;28;20480;-78
2022/03/08 10:38:14;;;;;;;13.70;7.80;;;;;;;3.71;68.60;99620.00;5037487;28;20465;-78
2022/03/08 10:40:40;;;;;;;15.10;8.00;;;;;;;3.70;68.79;99611.25;5033092;28;20120;-78
2022/03/08 10:43:15;;;;;;;11.88;7.07;;;;;;;3.78;68.77;99620.84;5018523;28;20033;-78
2022/03/08 10:45:43;;;;;;;11.35;7.72;;;;;;;3.72;68.55;99598.69;5025752;28;20034;-78
2022/03/08 10:48:09;;;;;;;12.68;7.78;;;;;;;3.60;68.30;99575.59;5007934;28;20032;-78
2022/03/08 10:50:37;;;;;;;9.25;6.63;;;;;;;3.81;67.67;99604.66;5032369;28;20029;-78
2022/03/08 10:53:05;;;;;;;9.70;7.28;;;;;;;3.90;66.88;99603.53;5016681;28;20033;-78
2022/03/08 10:55:36;;;;;;;12.18;6.80;;;;;;;3.93;67.75;99608.47;5035036;28;20025;-78
2022/03/08 10:58:05;;;;;;;11.20;7.38;;;;;;;3.95;67.74;99597.69;5033854;28;20481;-78
2022/03/08 11:00:41;;;;;;;10.00;6.40;;;;;;;3.93;67.06;99586.50;5035896;28;20052;-78
2022/03/08 11:03:13;;;;;;;16.85;8.40;;;;;;;3.83;66.92;99563.03;5030221;28;20493;-78
2022/03/08 11:05:39;;;;;;;9.55;6.90;;;;;;;4.06;67.32;99600.66;5028445;28;20477;-78
2022/03/08 11:08:06;;;;;;;11.63;6.07;;;;;;;4.09;66.79;99600.28;5032147;28;20432;-78
2022/03/08 11:10:33;;;;;;;7.63;5.05;;;;;;;4.03;65.74;99582.53;5030077;28;20036;-78
2022/03/08 11:12:59;;;;;;;6.47;4.75;;;;;;;4.11;65.51;99582.41;5032548;28;20029;-78
2022/03/08 11:15:25;;;;;;;9.75;4.97;;;;;;;4.25;65.22;99592.09;5032574;28;20025;-78
2022/03/08 11:17:54;;;;;;;6.55;4.72;;;;;;;4.30;64.65;99594.97;5033977;28;20024;-78
2022/03/08 11:20:21;;;;;;;8.05;4.45;;;;;;;4.21;63.91;99569.72;5026374;28;20558;-78
2022/03/08 11:22:48;;;;;;;7.00;4.53;;;;;;;4.30;63.59;99576.47;5027167;28;20623;-78